createdAt,value
2022-10-16T00:00:51.373Z,0.00
2022-10-16T00:01:51.382Z,0.00
2022-10-16T00:02:51.314Z,0.00
2022-10-16T00:03:51.305Z,0.00
2022-10-16T00:04:51.286Z,0.00
2022-10-16T00:05:51.321Z,0.00
2022-10-16T00:06:51.285Z,0.00
2022-10-16T00:07:51.253Z,0.00
2022-10-16T00:08:51.247Z,0.00
2022-10-16T00:09:51.226Z,0.00
2022-10-16T00:10:51.235Z,0.00
2022-10-16T00:12:54.207Z,0.00
2022-10-16T00:13:51.169Z,0.00
2022-10-16T00:14:51.207Z,0.00
2022-10-16T00:15:51.149Z,0.00
2022-10-16T00:16:51.125Z,0.00
2022-10-16T00:17:51.117Z,0.00
2022-10-16T00:18:51.099Z,0.00
2022-10-16T00:19:51.087Z,0.00
2022-10-16T00:20:51.124Z,0.00
2022-10-16T00:21:51.060Z,0.00
2022-10-16T00:22:51.041Z,0.00
2022-10-16T00:23:51.030Z,0.00
2022-10-16T00:24:51.022Z,0.00
2022-10-16T00:25:51.032Z,0.00
2022-10-16T00:26:51.053Z,0.00
2022-10-16T00:27:50.979Z,0.00
2022-10-16T00:28:51.040Z,0.00
2022-10-16T00:29:50.966Z,0.00
2022-10-16T00:30:50.935Z,0.00
2022-10-16T00:31:53.984Z,0.00
2022-10-16T00:32:53.916Z,0.00
2022-10-16T00:33:50.896Z,0.00
2022-10-16T00:34:50.875Z,0.00
2022-10-16T00:35:50.877Z,0.00
2022-10-16T00:36:50.854Z,0.00
2022-10-16T00:37:50.868Z,0.00
2022-10-16T00:38:50.879Z,0.00
2022-10-16T00:39:50.816Z,0.00
2022-10-16T00:40:50.799Z,0.00
2022-10-16T00:41:50.986Z,0.00
2022-10-16T00:42:50.770Z,0.00
2022-10-16T00:43:50.758Z,0.00
2022-10-16T00:44:50.746Z,0.00
2022-10-16T00:45:50.747Z,0.00
2022-10-16T00:46:50.719Z,0.00
2022-10-16T00:47:50.761Z,0.00
2022-10-16T00:48:50.711Z,0.00
2022-10-16T00:49:50.681Z,0.00
2022-10-16T00:50:50.674Z,0.00
2022-10-16T00:51:53.661Z,0.00
2022-10-16T00:52:53.713Z,0.00
2022-10-16T00:53:50.633Z,0.00
2022-10-16T00:54:50.611Z,0.00
2022-10-16T00:55:50.603Z,0.00
2022-10-16T00:56:50.618Z,0.00
2022-10-16T00:57:50.580Z,0.00
2022-10-16T00:58:50.591Z,0.00
2022-10-16T00:59:50.553Z,0.00
2022-10-16T01:00:50.611Z,0.00
2022-10-16T01:01:50.524Z,0.00
2022-10-16T01:02:50.518Z,0.00
2022-10-16T01:03:50.526Z,0.00
2022-10-16T01:04:50.487Z,0.00
2022-10-16T01:05:50.476Z,0.00
2022-10-16T01:06:50.466Z,0.00
2022-10-16T01:07:50.461Z,0.00
2022-10-16T01:08:50.456Z,0.00
2022-10-16T01:09:50.445Z,0.00
2022-10-16T01:10:50.419Z,0.00
2022-10-16T01:11:53.587Z,0.00
2022-10-16T01:12:53.392Z,0.00
2022-10-16T01:13:50.379Z,0.00
2022-10-16T01:14:50.351Z,0.00
2022-10-16T01:15:50.347Z,0.00
2022-10-16T01:16:50.327Z,0.00
2022-10-16T01:17:50.392Z,0.00
2022-10-16T01:18:50.300Z,0.00
2022-10-16T01:19:50.291Z,0.00
2022-10-16T01:20:50.292Z,0.00
2022-10-16T01:21:50.280Z,0.00
2022-10-16T01:22:50.252Z,0.00
2022-10-16T01:23:50.301Z,0.00
2022-10-16T01:24:50.281Z,0.00
2022-10-16T01:25:50.227Z,0.00
2022-10-16T01:26:50.199Z,0.00
2022-10-16T01:27:50.191Z,0.00
2022-10-16T01:28:50.248Z,0.00
2022-10-16T01:29:50.196Z,0.00
2022-10-16T01:30:50.144Z,0.00
2022-10-16T01:31:53.136Z,0.00
2022-10-16T01:32:53.160Z,0.00
2022-10-16T01:33:50.155Z,0.00
2022-10-16T01:34:50.091Z,0.00
2022-10-16T01:35:50.154Z,0.00
2022-10-16T01:36:50.059Z,0.00
2022-10-16T01:37:50.047Z,0.00
2022-10-16T01:38:50.035Z,0.00
2022-10-16T01:39:50.031Z,0.00
2022-10-16T01:40:50.007Z,0.00
2022-10-16T01:41:50.018Z,0.00
2022-10-16T01:42:50.023Z,0.00
2022-10-16T01:43:49.978Z,0.00
2022-10-16T01:44:49.947Z,0.00
2022-10-16T01:45:49.956Z,0.00
2022-10-16T01:46:49.958Z,0.00
2022-10-16T01:47:49.931Z,0.00
2022-10-16T01:48:49.899Z,0.00
2022-10-16T01:49:49.887Z,0.00
2022-10-16T01:50:49.890Z,0.00
2022-10-16T01:51:52.933Z,0.00
2022-10-16T01:52:52.853Z,0.00
2022-10-16T01:53:49.831Z,0.00
2022-10-16T01:54:49.844Z,0.00
2022-10-16T01:55:49.803Z,0.00
2022-10-16T01:56:49.784Z,0.00
2022-10-16T01:57:49.801Z,0.00
2022-10-16T01:58:49.801Z,0.00
2022-10-16T01:59:49.750Z,0.00
2022-10-16T02:00:49.829Z,0.00
2022-10-16T02:01:49.732Z,0.00
2022-10-16T02:02:49.727Z,0.00
2022-10-16T02:03:49.722Z,0.00
2022-10-16T02:04:49.675Z,0.00
2022-10-16T02:05:49.717Z,0.00
2022-10-16T02:06:49.664Z,0.00
2022-10-16T02:07:49.643Z,0.00
2022-10-16T02:08:49.626Z,0.00
2022-10-16T02:09:49.615Z,0.00
2022-10-16T02:10:49.613Z,0.00
2022-10-16T02:11:52.626Z,0.00
2022-10-16T02:12:52.576Z,0.00
2022-10-16T02:13:49.579Z,0.00
2022-10-16T02:14:49.537Z,0.00
2022-10-16T02:15:49.546Z,0.00
2022-10-16T02:16:49.517Z,0.00
2022-10-16T02:17:49.547Z,0.00
2022-10-16T02:18:49.486Z,0.00
2022-10-16T02:19:49.478Z,0.00
2022-10-16T02:20:49.459Z,0.00
2022-10-16T02:21:49.448Z,0.00
2022-10-16T02:22:49.451Z,0.00
2022-10-16T02:23:49.451Z,0.00
2022-10-16T02:24:49.400Z,0.00
2022-10-16T02:25:49.391Z,0.00
2022-10-16T02:26:49.371Z,0.00
2022-10-16T02:27:49.365Z,0.00
2022-10-16T02:28:49.444Z,0.00
2022-10-16T02:29:49.394Z,0.00
2022-10-16T02:30:49.320Z,0.00
2022-10-16T02:31:52.311Z,0.00
2022-10-16T02:32:52.333Z,0.00
2022-10-16T02:33:49.283Z,0.00
2022-10-16T02:34:49.264Z,0.00
2022-10-16T02:35:49.293Z,0.00
2022-10-16T02:36:49.234Z,0.00
2022-10-16T02:37:49.224Z,0.00
2022-10-16T02:38:49.234Z,0.00
2022-10-16T02:39:49.196Z,0.00
2022-10-16T02:40:49.175Z,0.00
2022-10-16T02:41:49.217Z,0.00
2022-10-16T02:42:49.158Z,0.00
2022-10-16T02:43:49.184Z,0.00
2022-10-16T02:44:49.126Z,0.00
2022-10-16T02:45:49.139Z,0.00
2022-10-16T02:46:49.106Z,0.00
2022-10-16T02:47:49.157Z,0.00
2022-10-16T02:48:49.067Z,0.00
2022-10-16T02:49:49.066Z,0.00
2022-10-16T02:50:49.047Z,0.00
2022-10-16T02:51:52.050Z,0.00
2022-10-16T02:52:52.059Z,0.00
2022-10-16T02:53:49.036Z,0.00
2022-10-16T02:54:48.989Z,0.00
2022-10-16T02:55:49.052Z,0.00
2022-10-16T02:56:48.962Z,0.00
2022-10-16T02:57:48.950Z,0.00
2022-10-16T02:58:48.932Z,0.00
2022-10-16T02:59:48.922Z,0.00
2022-10-16T03:00:48.988Z,0.00
2022-10-16T03:01:48.943Z,0.00
2022-10-16T03:02:48.881Z,0.00
2022-10-16T03:03:48.871Z,0.00
2022-10-16T03:04:48.852Z,0.00
2022-10-16T03:05:48.857Z,0.00
2022-10-16T03:06:48.822Z,0.00
2022-10-16T03:07:48.872Z,0.00
2022-10-16T03:08:48.801Z,0.00
2022-10-16T03:09:48.804Z,0.00
2022-10-16T03:10:48.771Z,0.00
2022-10-16T03:11:51.772Z,0.00
2022-10-16T03:12:51.795Z,0.00
2022-10-16T03:13:48.741Z,0.00
2022-10-16T03:14:48.723Z,0.00
2022-10-16T03:15:48.752Z,0.00
2022-10-16T03:16:48.713Z,0.00
2022-10-16T03:17:48.676Z,0.00
2022-10-16T03:18:48.659Z,0.00
2022-10-16T03:19:48.647Z,0.00
2022-10-16T03:20:48.633Z,0.00
2022-10-16T03:21:48.651Z,0.00
2022-10-16T03:22:48.621Z,0.00
2022-10-16T03:23:48.598Z,0.00
2022-10-16T03:24:48.577Z,0.00
2022-10-16T03:25:48.618Z,0.00
2022-10-16T03:26:48.548Z,0.00
2022-10-16T03:27:48.559Z,0.00
2022-10-16T03:28:48.556Z,0.00
2022-10-16T03:29:48.511Z,0.00
2022-10-16T03:30:48.502Z,0.00
2022-10-16T03:31:51.560Z,0.00
2022-10-16T03:32:51.493Z,0.00
2022-10-16T03:33:48.461Z,0.00
2022-10-16T03:34:48.441Z,0.00
2022-10-16T03:35:48.432Z,0.00
2022-10-16T03:36:48.424Z,0.00
2022-10-16T03:37:48.451Z,0.00
2022-10-16T03:38:48.440Z,0.00
2022-10-16T03:39:48.375Z,0.00
2022-10-16T03:40:48.390Z,0.00
2022-10-16T03:41:48.355Z,0.00
2022-10-16T03:42:48.339Z,0.00
2022-10-16T03:43:48.332Z,0.00
2022-10-16T03:44:48.503Z,0.00
2022-10-16T03:45:48.304Z,0.00
2022-10-16T03:46:48.276Z,0.00
2022-10-16T03:47:48.267Z,0.00
2022-10-16T03:48:48.257Z,0.00
2022-10-16T03:49:48.265Z,0.00
2022-10-16T03:50:48.275Z,0.00
2022-10-16T03:51:51.206Z,0.00
2022-10-16T03:52:51.220Z,0.00
2022-10-16T03:53:48.177Z,0.00
2022-10-16T03:54:48.169Z,0.00
2022-10-16T03:55:48.154Z,0.00
2022-10-16T03:56:48.189Z,0.00
2022-10-16T03:57:48.154Z,0.00
2022-10-16T03:58:48.117Z,0.00
2022-10-16T03:59:48.100Z,0.00
2022-10-16T04:00:48.131Z,0.00
2022-10-16T04:01:48.071Z,0.00
2022-10-16T04:02:48.134Z,0.00
2022-10-16T04:03:48.047Z,0.00
2022-10-16T04:04:48.031Z,0.00
2022-10-16T04:05:48.020Z,0.00
2022-10-16T04:06:48.010Z,0.00
2022-10-16T04:07:48.000Z,0.00
2022-10-16T04:08:48.031Z,0.00
2022-10-16T04:09:47.963Z,0.00
2022-10-16T04:10:47.957Z,0.00
2022-10-16T04:11:50.933Z,0.00
2022-10-16T04:12:50.942Z,0.00
2022-10-16T04:13:47.903Z,0.00
2022-10-16T04:14:47.964Z,0.00
2022-10-16T04:15:47.874Z,0.00
2022-10-16T04:16:47.864Z,0.00
2022-10-16T04:17:47.854Z,0.00
2022-10-16T04:18:47.836Z,0.00
2022-10-16T04:19:47.850Z,0.00
2022-10-16T04:20:47.867Z,0.00
2022-10-16T04:21:47.795Z,0.00
2022-10-16T04:22:47.786Z,0.00
2022-10-16T04:23:47.788Z,0.00
2022-10-16T04:24:47.757Z,0.00
2022-10-16T04:25:47.745Z,0.00
2022-10-16T04:26:47.779Z,0.00
2022-10-16T04:27:47.715Z,0.00
2022-10-16T04:28:47.752Z,0.00
2022-10-16T04:29:47.689Z,0.00
2022-10-16T04:30:47.678Z,0.00
2022-10-16T04:31:50.705Z,0.00
2022-10-16T04:32:50.753Z,0.00
2022-10-16T04:33:47.640Z,0.00
2022-10-16T04:34:47.619Z,0.00
2022-10-16T04:35:47.600Z,0.00
2022-10-16T04:36:47.613Z,0.00
2022-10-16T04:37:47.580Z,0.00
2022-10-16T04:38:47.613Z,0.00
2022-10-16T04:39:47.552Z,0.00
2022-10-16T04:40:47.543Z,0.00
2022-10-16T04:41:47.533Z,0.00
2022-10-16T04:42:47.512Z,0.00
2022-10-16T04:43:47.495Z,0.00
2022-10-16T04:44:47.538Z,0.00
2022-10-16T04:45:47.487Z,0.00
2022-10-16T04:46:47.453Z,0.00
2022-10-16T04:47:47.445Z,0.00
2022-10-16T04:48:47.424Z,0.00
2022-10-16T04:49:47.414Z,0.00
2022-10-16T04:50:51.669Z,0.00
2022-10-16T04:51:51.385Z,0.00
2022-10-16T04:52:50.388Z,0.00
2022-10-16T04:53:47.371Z,0.00
2022-10-16T04:54:47.346Z,0.00
2022-10-16T04:55:47.336Z,0.00
2022-10-16T04:56:47.346Z,0.00
2022-10-16T04:57:47.307Z,0.00
2022-10-16T04:58:47.322Z,0.00
2022-10-16T04:59:47.316Z,0.00
2022-10-16T05:00:47.267Z,0.00
2022-10-16T05:01:47.249Z,0.00
2022-10-16T05:02:47.300Z,0.00
2022-10-16T05:03:47.231Z,0.00
2022-10-16T05:04:47.208Z,0.00
2022-10-16T05:05:47.239Z,0.00
2022-10-16T05:06:47.188Z,0.00
2022-10-16T05:07:47.169Z,0.00
2022-10-16T05:08:47.166Z,0.00
2022-10-16T05:09:47.141Z,0.00
2022-10-16T05:10:47.135Z,0.00
2022-10-16T05:11:50.161Z,0.00
2022-10-16T05:12:50.136Z,0.00
2022-10-16T05:13:48.953Z,0.00
2022-10-16T05:14:47.073Z,0.00
2022-10-16T05:15:47.064Z,0.00
2022-10-16T05:16:48.173Z,0.00
2022-10-16T05:17:47.083Z,0.00
2022-10-16T05:18:47.192Z,0.00
2022-10-16T05:19:47.003Z,0.00
2022-10-16T05:20:46.996Z,0.00
2022-10-16T05:21:47.017Z,0.00
2022-10-16T05:22:46.965Z,0.00
2022-10-16T05:23:46.986Z,0.00
2022-10-16T05:24:46.941Z,4.00
2022-10-16T05:25:46.935Z,4.00
2022-10-16T05:26:46.911Z,0.00
2022-10-16T05:27:46.895Z,4.00
2022-10-16T05:28:46.926Z,4.00
2022-10-16T05:29:46.916Z,4.00
2022-10-16T05:30:46.894Z,4.00
2022-10-16T05:31:49.837Z,4.00
2022-10-16T05:32:49.845Z,4.00
2022-10-16T05:33:46.951Z,8.00
2022-10-16T05:34:46.797Z,12.00
2022-10-16T05:35:46.810Z,12.00
2022-10-16T05:36:46.796Z,16.00
2022-10-16T05:37:46.759Z,20.00
2022-10-16T05:38:46.749Z,20.00
2022-10-16T05:39:46.780Z,24.00
2022-10-16T05:40:46.721Z,28.00
2022-10-16T05:41:46.721Z,32.00
2022-10-16T05:42:46.693Z,36.00
2022-10-16T05:43:46.680Z,40.00
2022-10-16T05:44:46.676Z,44.00
2022-10-16T05:45:46.691Z,48.00
2022-10-16T05:46:46.642Z,52.00
2022-10-16T05:47:46.621Z,56.00
2022-10-16T05:48:46.631Z,64.00
2022-10-16T05:49:46.653Z,72.00
2022-10-16T05:50:46.605Z,76.00
2022-10-16T05:51:49.571Z,80.00
2022-10-16T05:52:49.572Z,92.00
2022-10-16T07:56:47.340Z,2708.00
2022-10-16T07:57:20.224Z,2476.00
2022-10-16T07:58:20.523Z,2384.00
2022-10-16T07:59:41.760Z,2036.00
2022-10-16T08:00:19.930Z,1972.00
2022-10-16T08:01:20.326Z,2000.00
2022-10-16T08:02:20.639Z,2164.00
2022-10-16T08:03:19.873Z,2028.00
2022-10-16T08:04:19.880Z,1924.00
2022-10-16T08:05:19.800Z,1952.00
2022-10-16T08:06:22.081Z,2012.00
2022-10-16T08:07:21.812Z,2088.00
2022-10-16T08:08:19.897Z,2108.00
2022-10-16T08:09:19.873Z,2024.00
2022-10-16T08:10:20.695Z,1956.00
2022-10-16T08:11:21.887Z,1860.00
2022-10-16T08:12:24.470Z,1820.00
2022-10-16T08:13:20.867Z,1848.00
2022-10-16T08:14:19.744Z,1908.00
2022-10-16T08:15:22.855Z,1852.00
2022-10-16T08:16:23.671Z,1912.00
2022-10-16T08:17:22.718Z,1968.00
2022-10-16T08:18:19.596Z,1928.00
2022-10-16T08:19:19.557Z,1872.00
2022-10-16T08:20:21.184Z,1832.00
2022-10-16T08:21:21.354Z,1800.00
2022-10-16T08:22:27.464Z,1912.00
2022-10-16T08:23:19.674Z,2280.00
2022-10-16T08:24:20.253Z,2208.00
2022-10-16T08:25:34.486Z,2336.00
2022-10-16T08:26:20.109Z,2352.00
2022-10-16T08:27:19.684Z,2328.00
2022-10-16T08:28:24.873Z,2296.00
2022-10-16T08:29:23.181Z,2236.00
2022-10-16T08:30:19.482Z,2076.00
2022-10-16T08:31:20.435Z,1976.00
2022-10-16T08:32:44.278Z,2020.00
2022-10-16T08:33:19.438Z,2348.00
2022-10-16T08:40:14.873Z,2404.00
2022-10-16T08:41:23.995Z,2500.00
2022-10-16T08:42:16.830Z,2648.00
2022-10-16T08:43:22.971Z,2760.00
2022-10-16T08:46:41.425Z,3488.00
2022-10-16T08:47:08.825Z,3244.00
2022-10-16T08:48:10.295Z,3048.00
2022-10-16T08:49:13.804Z,2788.00
2022-10-16T08:50:10.892Z,2692.00
2022-10-16T08:51:08.853Z,3112.00
2022-10-16T08:52:08.758Z,3700.00
2022-10-16T08:53:16.275Z,3128.00
2022-10-16T08:54:08.738Z,2936.00
2022-10-16T08:55:10.362Z,3492.00
2022-10-16T08:56:08.872Z,3220.00
2022-10-16T08:57:08.712Z,3368.00
2022-10-16T08:58:08.720Z,3316.00
2022-10-16T08:59:23.698Z,3180.00
2022-10-16T09:00:09.519Z,3060.00
2022-10-16T09:01:22.183Z,3160.00
2022-10-16T09:02:37.420Z,3568.00
2022-10-16T09:03:12.512Z,3364.00
2022-10-16T09:04:57.201Z,3076.00
2022-10-16T09:05:18.875Z,3612.00
2022-10-16T09:06:12.509Z,3872.00
2022-10-16T09:07:15.388Z,4196.00
2022-10-16T09:08:10.876Z,4288.00
2022-10-16T09:19:44.370Z,2608.00
2022-10-16T09:20:42.791Z,2996.00
2022-10-16T09:21:43.100Z,3516.00
2022-10-16T09:23:06.915Z,3492.00
2022-10-16T09:23:42.803Z,3380.00
2022-10-16T09:24:42.702Z,2756.00
2022-10-16T09:25:42.683Z,2480.00
2022-10-16T09:26:42.934Z,3128.00
2022-10-16T09:27:42.723Z,3124.00
2022-10-16T09:28:42.753Z,3452.00
2022-10-16T09:29:42.645Z,3936.00
2022-10-16T09:30:42.646Z,3824.00
2022-10-16T09:31:42.613Z,4164.00
2022-10-16T09:32:42.636Z,4132.00
2022-10-16T09:33:42.601Z,4388.00
2022-10-16T09:34:42.550Z,3884.00
2022-10-16T09:35:42.588Z,3808.00
2022-10-16T09:36:42.566Z,3544.00
2022-10-16T09:37:42.516Z,3412.00
2022-10-16T09:38:45.538Z,3220.00
2022-10-16T09:39:45.516Z,3256.00
2022-10-16T09:40:42.478Z,3276.00
2022-10-16T09:41:42.491Z,3128.00
2022-10-16T09:42:42.457Z,3216.00
2022-10-16T09:43:42.469Z,3336.00
2022-10-16T09:44:42.431Z,3316.00
2022-10-16T09:45:42.430Z,3276.00
2022-10-16T09:46:42.400Z,3216.00
2022-10-16T09:47:42.384Z,3180.00
2022-10-16T09:48:42.404Z,3308.00
2022-10-16T09:49:42.361Z,3064.00
2022-10-16T09:50:42.340Z,3152.00
2022-10-16T09:51:42.391Z,3324.00
2022-10-16T09:52:43.375Z,3664.00
2022-10-16T09:53:42.354Z,3932.00
2022-10-16T09:54:42.325Z,4028.00
2022-10-16T09:55:42.273Z,4056.00
2022-10-16T09:56:42.295Z,3900.00
2022-10-16T09:57:42.274Z,3920.00
2022-10-16T09:58:45.274Z,4048.00
2022-10-16T09:59:45.281Z,4920.00
2022-10-16T10:00:42.206Z,4648.00
2022-10-16T10:01:42.225Z,4120.00
2022-10-16T10:02:42.224Z,4068.00
2022-10-16T10:03:42.157Z,3760.00
2022-10-16T10:04:42.149Z,3520.00
2022-10-16T10:05:42.168Z,3428.00
2022-10-16T10:06:42.137Z,3596.00
2022-10-16T10:07:42.148Z,3744.00
2022-10-16T10:08:42.119Z,3904.00
2022-10-16T10:09:42.153Z,4028.00
2022-10-16T10:10:42.159Z,4156.00
2022-10-16T10:11:42.069Z,4344.00
2022-10-16T10:12:42.101Z,4272.00
2022-10-16T10:13:42.042Z,4364.00
2022-10-16T10:14:42.019Z,3952.00
2022-10-16T10:15:42.005Z,3744.00
2022-10-16T10:16:42.032Z,3632.00
2022-10-16T10:17:42.194Z,3776.00
2022-10-16T10:18:44.981Z,4484.00
2022-10-16T10:19:45.023Z,3960.00
2022-10-16T10:20:41.989Z,3732.00
2022-10-16T10:21:41.948Z,3484.00
2022-10-16T10:22:42.038Z,3380.00
2022-10-16T10:23:42.065Z,3400.00
2022-10-16T10:24:41.868Z,3796.00
2022-10-16T10:25:42.036Z,3892.00
2022-10-16T10:26:45.324Z,3704.00
2022-10-16T10:27:41.908Z,3588.00
2022-10-16T10:28:42.006Z,3868.00
2022-10-16T10:29:41.828Z,4212.00
2022-10-16T10:30:41.829Z,4272.00
2022-10-16T10:31:41.788Z,2728.00
2022-10-16T10:32:41.794Z,2528.00
2022-10-16T10:33:41.767Z,3560.00
2022-10-16T10:34:41.728Z,3676.00
2022-10-16T10:35:41.724Z,3660.00
2022-10-16T10:36:41.750Z,2728.00
2022-10-16T10:37:41.716Z,3124.00
2022-10-16T10:38:44.719Z,4264.00
2022-10-16T10:39:44.684Z,3444.00
2022-10-16T10:40:41.671Z,4384.00
2022-10-16T10:41:41.695Z,2956.00
2022-10-16T10:42:41.652Z,3284.00
2022-10-16T10:43:41.681Z,4872.00
2022-10-16T10:44:41.614Z,4016.00
2022-10-16T10:45:41.585Z,3540.00
2022-10-16T10:46:43.415Z,4160.00
2022-10-16T10:47:41.593Z,3892.00
2022-10-16T10:48:41.554Z,3808.00
2022-10-16T10:49:43.262Z,5400.00
2022-10-16T10:50:41.574Z,5652.00
2022-10-16T10:51:41.556Z,5144.00
2022-10-16T10:52:41.547Z,5112.00
2022-10-16T10:53:41.509Z,5476.00
2022-10-16T10:54:41.520Z,5156.00
2022-10-16T10:55:41.491Z,5344.00
2022-10-16T10:56:41.446Z,5148.00
2022-10-16T10:57:41.475Z,5544.00
2022-10-16T10:58:44.488Z,3912.00
2022-10-16T10:59:44.648Z,3932.00
2022-10-16T11:00:41.459Z,4208.00
2022-10-16T11:01:41.449Z,5364.00
2022-10-16T11:02:41.431Z,4020.00
2022-10-16T11:03:41.350Z,3452.00
2022-10-16T11:04:41.360Z,3472.00
2022-10-16T11:05:41.367Z,4832.00
2022-10-16T11:06:41.340Z,5040.00
2022-10-16T11:07:41.320Z,3876.00
2022-10-16T11:08:41.325Z,3888.00
2022-10-16T11:09:41.266Z,4180.00
2022-10-16T11:10:41.323Z,4176.00
2022-10-16T11:11:41.294Z,3380.00
2022-10-16T11:12:41.237Z,4144.00
2022-10-16T11:13:41.283Z,4360.00
2022-10-16T11:14:41.224Z,3996.00
2022-10-16T11:15:41.358Z,4424.00
2022-10-16T11:16:41.185Z,4440.00
2022-10-16T11:17:41.224Z,5092.00
2022-10-16T11:18:44.225Z,4108.00
2022-10-16T11:19:44.169Z,4664.00
2022-10-16T11:20:41.182Z,4340.00
2022-10-16T11:21:41.127Z,4640.00
2022-10-16T11:22:41.137Z,4448.00
2022-10-16T11:23:41.148Z,4880.00
2022-10-16T11:24:41.070Z,4860.00
2022-10-16T11:25:41.040Z,3600.00
2022-10-16T11:26:41.036Z,4720.00
2022-10-16T11:27:41.035Z,4940.00
2022-10-16T11:28:41.105Z,4724.00
2022-10-16T11:29:41.100Z,5404.00
2022-10-16T11:30:41.000Z,3852.00
2022-10-16T11:31:41.010Z,4644.00
2022-10-16T11:32:40.978Z,5004.00
2022-10-16T11:33:41.004Z,3500.00
2022-10-16T11:34:40.943Z,3864.00
2022-10-16T11:35:40.915Z,3984.00
2022-10-16T11:36:40.972Z,3916.00
2022-10-16T11:37:40.895Z,5092.00
2022-10-16T11:38:43.940Z,5180.00
2022-10-16T11:39:43.905Z,5028.00
2022-10-16T11:40:40.854Z,4784.00
2022-10-16T11:41:40.862Z,4660.00
2022-10-16T11:42:40.828Z,4984.00
2022-10-16T11:43:40.808Z,5084.00
2022-10-16T11:44:40.829Z,4676.00
2022-10-16T11:45:40.801Z,4816.00
2022-10-16T11:46:58.261Z,5588.00
2022-10-16T11:48:41.737Z,4460.00
2022-10-16T11:49:40.798Z,5280.00
2022-10-16T11:50:40.727Z,4328.00
2022-10-16T11:51:40.719Z,4176.00
2022-10-16T11:52:40.708Z,4920.00
2022-10-16T11:53:48.170Z,4660.00
2022-10-16T11:54:40.650Z,3816.00
2022-10-16T11:55:43.341Z,3948.00
2022-10-16T11:56:41.623Z,5156.00
2022-10-16T11:57:40.613Z,4888.00
2022-10-16T11:58:43.603Z,5112.00
2022-10-16T11:59:43.594Z,4896.00
2022-10-16T12:00:40.609Z,5468.00
2022-10-16T12:01:40.618Z,5616.00
2022-10-16T12:02:40.555Z,4048.00
2022-10-16T12:03:40.550Z,3980.00
2022-10-16T12:04:40.515Z,3900.00
2022-10-16T12:05:40.506Z,3956.00
2022-10-16T12:06:40.505Z,4832.00
2022-10-16T12:07:40.496Z,4604.00
2022-10-16T12:08:40.479Z,3148.00
2022-10-16T12:09:40.460Z,4844.00
2022-10-16T12:10:40.451Z,4552.00
2022-10-16T12:11:40.428Z,3500.00
2022-10-16T12:12:40.595Z,3460.00
2022-10-16T12:13:40.396Z,4364.00
2022-10-16T12:15:03.800Z,4976.00
2022-10-16T12:15:58.068Z,5424.00
2022-10-16T12:16:41.370Z,4920.00
2022-10-16T12:17:40.371Z,4740.00
2022-10-16T12:18:43.355Z,4548.00
2022-10-16T12:19:43.400Z,3340.00
2022-10-16T12:20:40.322Z,2840.00
2022-10-16T12:21:40.294Z,2812.00
2022-10-16T12:22:41.507Z,2620.00
2022-10-16T12:23:40.275Z,2572.00
2022-10-16T12:24:40.308Z,2648.00
2022-10-16T12:25:40.242Z,2824.00
2022-10-16T12:26:40.244Z,3020.00
2022-10-16T12:27:40.235Z,3324.00
2022-10-16T12:28:40.305Z,3908.00
2022-10-16T12:29:40.187Z,4368.00
2022-10-16T12:30:40.186Z,3840.00
2022-10-16T12:31:42.731Z,3416.00
2022-10-16T12:32:46.833Z,4328.00
2022-10-16T12:33:41.169Z,2660.00
2022-10-16T12:34:40.129Z,2532.00
2022-10-16T12:35:40.110Z,2448.00
2022-10-16T12:36:40.099Z,2396.00
2022-10-16T12:37:40.119Z,3676.00
2022-10-16T12:38:43.110Z,4100.00
2022-10-16T12:39:43.081Z,4380.00
2022-10-16T12:40:40.050Z,4492.00
2022-10-16T12:41:40.031Z,3988.00
2022-10-16T12:42:40.022Z,4248.00
2022-10-16T12:43:40.032Z,4208.00
2022-10-16T12:44:39.995Z,4328.00
2022-10-16T12:45:39.983Z,4056.00
2022-10-16T12:46:39.973Z,3940.00
2022-10-16T12:47:39.952Z,3960.00
2022-10-16T12:48:48.638Z,3908.00
2022-10-16T12:49:40.953Z,3888.00
2022-10-16T12:50:39.945Z,3884.00
2022-10-16T12:51:39.913Z,3960.00
2022-10-16T12:52:39.910Z,3972.00
2022-10-16T12:53:39.895Z,3952.00
2022-10-16T12:54:39.866Z,3260.00
2022-10-16T12:55:39.859Z,3612.00
2022-10-16T12:57:39.819Z,4492.00
2022-10-16T12:58:42.837Z,4776.00
2022-10-16T12:59:42.837Z,4524.00
2022-10-16T13:00:39.868Z,4308.00
2022-10-16T13:01:39.769Z,4308.00
2022-10-16T13:02:39.759Z,4504.00
2022-10-16T13:03:39.743Z,4676.00
2022-10-16T13:04:39.750Z,4368.00
2022-10-16T13:05:39.727Z,4316.00
2022-10-16T13:06:39.705Z,4912.00
2022-10-16T13:07:39.692Z,4976.00
2022-10-16T13:08:39.682Z,4736.00
2022-10-16T13:09:39.691Z,4484.00
2022-10-16T13:10:39.662Z,4284.00
2022-10-16T13:11:39.633Z,4236.00
2022-10-16T13:12:39.630Z,4060.00
2022-10-16T13:13:39.613Z,3936.00
2022-10-16T13:14:39.657Z,4128.00
2022-10-16T13:15:39.588Z,4128.00
2022-10-16T13:16:39.595Z,3940.00
2022-10-16T13:17:39.546Z,4188.00
2022-10-16T13:18:42.546Z,4372.00
2022-10-16T13:19:42.535Z,4236.00
2022-10-16T13:20:39.507Z,4124.00
2022-10-16T13:21:39.519Z,4328.00
2022-10-16T13:22:39.488Z,4392.00
2022-10-16T13:23:39.535Z,3228.00
2022-10-16T13:24:39.448Z,4232.00
2022-10-16T13:25:39.440Z,4088.00
2022-10-16T13:26:39.454Z,4144.00
2022-10-16T13:27:39.410Z,4348.00
2022-10-16T13:28:39.462Z,4308.00
2022-10-16T13:29:39.383Z,4088.00
2022-10-16T13:30:39.384Z,3884.00
2022-10-16T13:31:39.385Z,3880.00
2022-10-16T13:32:39.345Z,2628.00
2022-10-16T13:33:39.336Z,2636.00
2022-10-16T13:34:39.312Z,2752.00
2022-10-16T13:35:39.306Z,2768.00
2022-10-16T13:36:39.314Z,3820.00
2022-10-16T13:37:39.273Z,4032.00
2022-10-16T13:38:42.294Z,4012.00
2022-10-16T13:39:42.264Z,4196.00
2022-10-16T13:40:39.238Z,4036.00
2022-10-16T13:41:39.218Z,3708.00
2022-10-16T13:42:39.208Z,3296.00
2022-10-16T13:43:39.198Z,3444.00
2022-10-16T13:44:39.206Z,2880.00
2022-10-16T13:45:39.167Z,2628.00
2022-10-16T13:46:39.154Z,2504.00
2022-10-16T13:47:39.136Z,2468.00
2022-10-16T13:48:39.137Z,2432.00
2022-10-16T13:49:39.140Z,2436.00
2022-10-16T13:50:39.102Z,2496.00
2022-10-16T13:51:39.080Z,2552.00
2022-10-16T13:52:39.070Z,3332.00
2022-10-16T13:53:39.100Z,3204.00
2022-10-16T13:54:39.042Z,3300.00
2022-10-16T13:55:39.034Z,2308.00
2022-10-16T13:56:39.012Z,3212.00
2022-10-16T13:57:39.005Z,3168.00
2022-10-16T13:58:42.013Z,2872.00
2022-10-16T13:59:42.040Z,3128.00
2022-10-16T14:01:38.975Z,3140.00
2022-10-16T14:02:38.950Z,3144.00
2022-10-16T14:03:38.927Z,3180.00
2022-10-16T14:04:38.915Z,3172.00
2022-10-16T14:05:38.935Z,3172.00
2022-10-16T14:06:38.886Z,3180.00
2022-10-16T14:07:38.868Z,3192.00
2022-10-16T14:08:38.867Z,3164.00
2022-10-16T14:09:38.877Z,3176.00
2022-10-16T14:10:38.840Z,3176.00
2022-10-16T14:11:38.847Z,3192.00
2022-10-16T14:12:38.814Z,3312.00
2022-10-16T14:13:38.809Z,3292.00
2022-10-16T14:14:38.782Z,3252.00
2022-10-16T14:15:38.813Z,3252.00
2022-10-16T14:16:38.760Z,3164.00
2022-10-16T14:17:38.744Z,3156.00
2022-10-16T14:18:41.750Z,3108.00
2022-10-16T14:19:41.729Z,3080.00
2022-10-16T14:20:38.702Z,3064.00
2022-10-16T14:21:38.730Z,3040.00
2022-10-16T14:22:38.693Z,3032.00
2022-10-16T14:23:38.663Z,3244.00
2022-10-16T14:24:38.645Z,3204.00
2022-10-16T14:25:38.643Z,3072.00
2022-10-16T14:26:38.623Z,2952.00
2022-10-16T14:27:38.633Z,2888.00
2022-10-16T14:28:38.656Z,3004.00
2022-10-16T14:29:38.587Z,2936.00
2022-10-16T14:30:38.599Z,2864.00
2022-10-16T14:31:38.556Z,2768.00
2022-10-16T14:32:38.559Z,2696.00
2022-10-16T14:33:38.566Z,2656.00
2022-10-16T14:34:38.569Z,2300.00
2022-10-16T14:35:38.500Z,2072.00
2022-10-16T14:36:38.509Z,2024.00
2022-10-16T14:37:38.478Z,2072.00
2022-10-16T14:38:41.489Z,2460.00
2022-10-16T14:39:41.524Z,2092.00
2022-10-16T14:40:38.449Z,2032.00
2022-10-16T14:41:38.421Z,2316.00
2022-10-16T14:42:38.411Z,2408.00
2022-10-16T14:43:38.421Z,2472.00
2022-10-16T14:44:38.383Z,2648.00
2022-10-16T14:45:38.396Z,2684.00
2022-10-16T14:46:38.362Z,2596.00
2022-10-16T14:47:38.384Z,2208.00
2022-10-16T14:48:38.336Z,2148.00
2022-10-16T14:49:38.333Z,2052.00
2022-10-16T14:50:38.318Z,2140.00
2022-10-16T14:51:38.296Z,2200.00
2022-10-16T14:52:38.306Z,2120.00
2022-10-16T14:53:38.281Z,2044.00
2022-10-16T14:54:38.258Z,1980.00
2022-10-16T14:55:38.248Z,1952.00
2022-10-16T14:56:38.260Z,1936.00
2022-10-16T14:57:38.215Z,1924.00
2022-10-16T14:58:41.231Z,1904.00
2022-10-16T14:59:41.288Z,1728.00
2022-10-16T15:00:38.180Z,1872.00
2022-10-16T15:01:38.172Z,1840.00
2022-10-16T15:02:38.183Z,1824.00